Time,TemperatureF,DewpointF,PressureIn,WindDirection,WindDirectionDegrees,WindSpeedMPH,WindSpeedGustMPH,Humidity,HourlyPrecipIn,Conditions,Clouds,dailyrainin,SoftwareType,DateUTC
2013-07-09 00:03:00,77.5,69.8,30.01,SW,227,0.0,0.0,77,0.00,,SCT110,0.00,VWS V14.01,2013-07-09 05:03:00,
2013-07-09 00:08:00,77.5,69.8,30.01,SW,227,0.0,0.0,77,0.00,,SCT110,0.00,VWS V14.01,2013-07-09 05:08:00,
2013-07-09 00:13:00,77.5,71.1,30.01,SW,227,0.0,0.0,80,0.00,,SCT110,0.00,VWS V14.01,2013-07-09 05:13:00,
2013-07-09 00:18:00,77.5,71.1,30.01,SW,227,0.0,0.0,80,0.00,,SCT110,0.00,VWS V14.01,2013-07-09 05:18:00,
2013-07-09 00:23:00,77.7,71.2,30.01,SW,227,0.0,0.0,80,0.00,,CLR,0.00,VWS V14.01,2013-07-09 05:23:00,
2013-07-09 00:28:00,77.7,71.2,30.01,SW,227,0.0,0.0,80,0.00,,CLR,0.00,VWS V14.01,2013-07-09 05:28:00,
2013-07-09 00:33:00,77.9,72.7,30.01,SW,227,0.0,0.0,84,0.00,,CLR,0.00,VWS V14.01,2013-07-09 05:33:00,
2013-07-09 00:38:00,78.1,72.9,30.01,SW,227,0.0,0.0,84,0.00,,CLR,0.00,VWS V14.01,2013-07-09 05:38:00,
2013-07-09 00:44:00,78.1,72.9,30.01,SW,227,0.0,0.0,84,0.00,,SCT110,0.00,VWS V14.01,2013-07-09 05:44:00,
2013-07-09 00:49:00,78.3,73.0,30.01,SW,227,0.0,0.0,84,0.00,,SCT110,0.00,VWS V14.01,2013-07-09 05:49:00,
2013-07-09 00:54:00,78.3,73.0,30.01,SW,227,0.0,0.0,84,0.00,,SCT110,0.00,VWS V14.01,2013-07-09 05:54:00,
2013-07-09 00:59:00,78.3,73.0,30.01,SW,227,0.0,0.0,84,0.00,,SCT110,0.00,VWS V14.01,2013-07-09 05:59:00,
2013-07-09 01:04:00,78.4,74.4,30.01,SW,227,0.0,0.0,88,0.00,,SCT120,0.00,VWS V14.01,2013-07-09 06:04:00,
2013-07-09 01:09:00,78.4,74.4,30.01,SW,227,0.0,0.0,88,0.00,,SCT120,0.00,VWS V14.01,2013-07-09 06:09:00,
2013-07-09 01:14:00,78.4,74.4,30.01,SSE,148,0.0,0.0,88,0.00,,SCT120,0.00,VWS V14.01,2013-07-09 06:14:00,
2013-07-09 01:19:00,78.4,74.4,30.01,SSE,148,0.0,0.0,88,0.00,,SCT120,0.00,VWS V14.01,2013-07-09 06:19:00,
2013-07-09 01:24:00,78.4,74.4,30.01,SSE,148,0.0,0.0,88,0.00,,OVC120,0.00,VWS V14.01,2013-07-09 06:24:00,
2013-07-09 01:30:00,78.4,75.6,30.01,South,188,0.0,0.0,91,0.00,,OVC120,0.00,VWS V14.01,2013-07-09 06:30:00,
2013-07-09 01:35:00,78.6,75.8,30.01,SSE,160,0.0,0.0,91,0.00,,OVC120,0.00,VWS V14.01,2013-07-09 06:35:00,
2013-07-09 01:40:00,78.6,75.8,30.01,SSE,160,0.0,0.0,91,0.00,,OVC120,0.00,VWS V14.01,2013-07-09 06:40:00,
2013-07-09 01:45:00,78.6,75.8,30.01,SSW,213,0.0,0.0,91,0.00,,BKN110,0.00,VWS V14.01,2013-07-09 06:45:00,
2013-07-09 01:50:00,78.6,75.8,30.01,SW,214,0.0,0.0,91,0.00,,BKN110,0.00,VWS V14.01,2013-07-09 06:50:00,
2013-07-09 01:55:00,78.6,75.8,30.01,South,173,0.0,0.0,91,0.00,,BKN110,0.00,VWS V14.01,2013-07-09 06:55:00,
2013-07-09 02:00:00,78.6,75.8,30.01,WSW,252,0.0,0.0,91,0.00,,BKN120,0.00,VWS V14.01,2013-07-09 07:00:00,
2013-07-09 02:05:00,78.6,75.8,30.01,SW,224,0.0,0.0,91,0.00,,BKN120,0.00,VWS V14.01,2013-07-09 07:05:00,
2013-07-09 02:10:00,78.8,74.8,30.01,SW,222,3.6,4.0,88,0.00,,BKN120,0.00,VWS V14.01,2013-07-09 07:10:00,
2013-07-09 02:15:00,78.8,74.8,30.01,South,181,2.7,3.1,88,0.00,,BKN120,0.00,VWS V14.01,2013-07-09 07:15:00,
2013-07-09 02:21:00,78.8,74.8,30.01,SSW,198,0.0,0.0,88,0.00,,BKN110,0.00,VWS V14.01,2013-07-09 07:21:00,
2013-07-09 02:26:00,78.8,73.6,30.01,SW,221,0.0,0.0,84,0.00,,BKN110,0.00,VWS V14.01,2013-07-09 07:26:00,
2013-07-09 02:31:00,78.8,73.6,30.01,South,190,0.0,0.0,84,0.00,,BKN110,0.00,VWS V14.01,2013-07-09 07:31:00,
2013-07-09 02:36:00,78.8,72.3,30.01,SW,229,0.0,0.0,80,0.00,,BKN110,0.00,VWS V14.01,2013-07-09 07:36:00,
2013-07-09 02:41:00,78.8,72.3,30.01,SW,229,0.0,0.0,80,0.00,,BKN110,0.00,VWS V14.01,2013-07-09 07:41:00,
2013-07-09 02:46:00,78.8,72.3,30.01,SSW,197,0.0,0.0,80,0.00,,BKN110,0.00,VWS V14.01,2013-07-09 07:46:00,
2013-07-09 02:52:00,78.6,72.1,30.01,SSW,197,0.0,0.0,80,0.00,,BKN110,0.00,VWS V14.01,2013-07-09 07:52:00,
2013-07-09 02:58:00,78.4,71.9,30.01,SW,214,0.0,3.1,80,0.00,,BKN110,0.00,VWS V14.01,2013-07-09 07:58:00,
2013-07-09 03:03:00,78.4,71.9,30.01,WSW,243,0.0,0.0,80,0.00,,SCT110,0.00,VWS V14.01,2013-07-09 08:03:00,
2013-07-09 03:08:00,78.4,71.9,30.01,SW,229,0.0,0.0,80,0.00,,SCT110,0.00,VWS V14.01,2013-07-09 08:08:00,
2013-07-09 03:13:00,78.4,71.9,30.01,SSW,198,0.0,0.0,80,0.00,,SCT110,0.00,VWS V14.01,2013-07-09 08:13:00,
2013-07-09 03:18:00,78.3,71.8,30.01,South,178,0.0,0.0,80,0.00,,SCT110,0.00,VWS V14.01,2013-07-09 08:18:00,
2013-07-09 03:23:00,78.1,71.6,30.01,SW,219,0.0,0.0,80,0.00,,CLR,0.00,VWS V14.01,2013-07-09 08:23:00,
2013-07-09 03:28:00,77.9,71.4,30.01,South,181,0.0,0.0,80,0.00,,CLR,0.00,VWS V14.01,2013-07-09 08:28:00,
2013-07-09 03:33:00,77.9,71.4,30.01,South,178,0.0,0.0,80,0.00,,CLR,0.00,VWS V14.01,2013-07-09 08:33:00,
2013-07-09 03:38:00,77.9,71.4,30.01,SW,218,0.0,0.0,80,0.00,,CLR,0.00,VWS V14.01,2013-07-09 08:38:00,
2013-07-09 03:43:00,77.9,71.4,30.01,SSW,208,0.0,0.0,80,0.00,,BKN120,0.00,VWS V14.01,2013-07-09 08:43:00,
2013-07-09 03:48:00,77.9,71.4,30.01,SSW,213,0.0,0.0,80,0.00,,BKN120,0.00,VWS V14.01,2013-07-09 08:48:00,
2013-07-09 03:53:00,77.9,72.7,30.01,SSW,212,0.0,0.0,84,0.00,,BKN120,0.00,VWS V14.01,2013-07-09 08:53:00,
2013-07-09 03:59:00,77.9,72.7,30.01,SSW,205,0.0,0.0,84,0.00,,BKN120,0.00,VWS V14.01,2013-07-09 08:59:00,
2013-07-09 04:04:00,77.9,72.7,30.01,South,170,0.0,0.0,84,0.00,,OVC120,0.00,VWS V14.01,2013-07-09 09:04:00,
2013-07-09 04:09:00,78.1,72.9,30.01,South,182,0.0,0.0,84,0.00,,OVC120,0.00,VWS V14.01,2013-07-09 09:09:00,
2013-07-09 04:14:00,78.1,72.9,30.01,South,175,0.0,0.0,84,0.00,,OVC120,0.00,VWS V14.01,2013-07-09 09:14:00,
2013-07-09 04:19:00,78.1,72.9,30.01,SSE,152,0.0,0.0,84,0.00,,OVC120,0.00,VWS V14.01,2013-07-09 09:19:00,
2013-07-09 04:24:00,78.1,72.9,30.01,South,171,0.0,0.0,84,0.00,,OVC110,0.00,VWS V14.01,2013-07-09 09:24:00,
2013-07-09 04:29:00,78.3,73.0,30.01,South,171,0.0,0.0,84,0.00,,OVC110,0.00,VWS V14.01,2013-07-09 09:29:00,
2013-07-09 04:34:00,78.1,72.9,30.01,SW,217,0.0,0.0,84,0.00,,OVC110,0.00,VWS V14.01,2013-07-09 09:34:00,
2013-07-09 04:39:00,78.1,72.9,30.01,SSW,208,0.0,0.0,84,0.00,,OVC110,0.00,VWS V14.01,2013-07-09 09:39:00,
2013-07-09 04:44:00,78.1,72.9,30.01,SSW,208,0.0,0.0,84,0.00,,OVC120,0.00,VWS V14.01,2013-07-09 09:44:00,
2013-07-09 04:45:00,78.1,72.9,30.01,SSW,208,0.0,0.0,84,0.00,,OVC120,0.00,VWS V14.01,2013-07-09 09:45:00,
2013-07-09 04:50:00,78.1,72.9,30.01,South,183,0.0,0.0,84,0.00,,OVC120,0.00,VWS V14.01,2013-07-09 09:50:00,
2013-07-09 04:55:00,78.1,72.9,30.01,South,189,0.0,0.0,84,0.00,,OVC120,0.00,VWS V14.01,2013-07-09 09:55:00,
2013-07-09 05:00:00,78.1,72.9,30.01,South,189,0.0,0.0,84,0.00,,OVC120,0.00,VWS V14.01,2013-07-09 10:00:00,
2013-07-09 05:05:00,78.1,72.9,30.01,South,189,0.0,0.0,84,0.00,,OVC120,0.00,VWS V14.01,2013-07-09 10:05:00,
2013-07-09 05:10:00,78.1,72.9,30.01,SSW,198,0.0,0.0,84,0.00,,OVC120,0.00,VWS V14.01,2013-07-09 10:10:00,
2013-07-09 05:15:00,78.1,72.9,30.01,SW,221,0.0,0.0,84,0.00,,OVC120,0.00,VWS V14.01,2013-07-09 10:15:00,
2013-07-09 05:21:00,78.1,72.9,29.98,SSW,203,0.0,0.0,84,0.00,,OVC110,0.00,VWS V14.01,2013-07-09 10:21:00,
2013-07-09 05:26:00,77.9,72.7,29.98,South,171,0.0,0.0,84,0.00,,OVC110,0.00,VWS V14.01,2013-07-09 10:26:00,
2013-07-09 05:31:00,77.9,72.7,30.01,South,189,0.0,0.0,84,0.00,,OVC110,0.00,VWS V14.01,2013-07-09 10:31:00,
2013-07-09 05:36:00,78.1,72.9,30.01,SW,232,0.0,0.0,84,0.00,,OVC110,0.00,VWS V14.01,2013-07-09 10:36:00,
2013-07-09 05:41:00,78.1,72.9,30.01,SW,224,4.0,4.0,84,0.00,,OVC110,0.00,VWS V14.01,2013-07-09 10:41:00,
2013-07-09 05:46:00,78.1,72.9,30.01,SW,235,3.6,3.6,84,0.00,,OVC110,0.00,VWS V14.01,2013-07-09 10:46:00,
2013-07-09 05:51:00,78.1,71.6,30.01,SW,227,0.0,2.7,80,0.00,,OVC110,0.00,VWS V14.01,2013-07-09 10:51:00,
2013-07-09 05:56:00,78.1,71.6,30.01,SSE,150,0.0,0.0,80,0.00,,OVC110,0.00,VWS V14.01,2013-07-09 10:56:00,
2013-07-09 06:01:00,78.1,71.6,30.01,SSE,164,2.2,3.1,80,0.00,,SCT110,0.00,VWS V14.01,2013-07-09 11:01:00,
2013-07-09 06:06:00,77.9,71.4,30.01,South,183,0.0,0.0,80,0.00,,SCT110,0.00,VWS V14.01,2013-07-09 11:06:00,
2013-07-09 06:11:00,77.5,71.1,30.01,SSW,199,0.0,0.0,80,0.00,,SCT110,0.00,VWS V14.01,2013-07-09 11:11:00,
2013-07-09 06:16:00,77.4,70.9,30.01,South,184,3.1,3.6,80,0.00,,SCT110,0.00,VWS V14.01,2013-07-09 11:16:00,
2013-07-09 06:22:00,77.2,72.0,30.01,SSW,213,0.0,3.6,84,0.00,,CLR,0.00,VWS V14.01,2013-07-09 11:22:00,
2013-07-09 06:27:00,77.2,72.0,30.01,SSE,161,0.0,2.2,84,0.00,,CLR,0.00,VWS V14.01,2013-07-09 11:27:00,
2013-07-09 06:32:00,77.2,72.0,30.01,SSW,202,0.0,0.0,84,0.00,,CLR,0.00,VWS V14.01,2013-07-09 11:32:00,
2013-07-09 06:37:00,77.4,72.2,30.01,South,188,0.0,0.0,84,0.00,,CLR,0.00,VWS V14.01,2013-07-09 11:37:00,
2013-07-09 06:42:00,77.4,73.4,30.01,South,172,0.0,0.0,88,0.00,,CLR,0.00,VWS V14.01,2013-07-09 11:42:00,
2013-07-09 06:47:00,77.5,73.5,30.01,South,176,2.2,2.7,88,0.00,,CLR,0.00,VWS V14.01,2013-07-09 11:47:00,
2013-07-09 06:52:00,77.5,73.5,30.01,South,178,0.0,2.2,88,0.00,,CLR,0.00,VWS V14.01,2013-07-09 11:52:00,
2013-07-09 06:57:00,77.7,74.9,30.01,South,184,0.0,4.0,91,0.00,,CLR,0.00,VWS V14.01,2013-07-09 11:57:00,
2013-07-09 07:02:00,77.9,75.1,30.01,SE,128,0.0,2.7,91,0.00,,CLR,0.00,VWS V14.01,2013-07-09 12:02:00,
2013-07-09 07:08:00,78.1,75.2,30.01,South,190,0.0,0.0,91,0.00,,CLR,0.00,VWS V14.01,2013-07-09 12:08:00,
2013-07-09 07:13:00,78.3,75.4,30.01,SSW,204,0.0,3.1,91,0.00,,CLR,0.00,VWS V14.01,2013-07-09 12:13:00,
2013-07-09 07:18:00,78.3,75.4,30.01,SSW,192,0.0,0.0,91,0.00,,CLR,0.00,VWS V14.01,2013-07-09 12:18:00,
2013-07-09 07:23:00,78.3,75.4,30.01,South,184,0.0,0.0,91,0.00,,SCT120,0.00,VWS V14.01,2013-07-09 12:23:00,
2013-07-09 07:28:00,78.3,74.2,30.01,WSW,243,0.0,0.0,88,0.00,,SCT120,0.00,VWS V14.01,2013-07-09 12:28:00,
2013-07-09 07:33:00,78.3,74.2,30.01,SW,226,0.0,0.0,88,0.00,,SCT120,0.00,VWS V14.01,2013-07-09 12:33:00,
2013-07-09 07:38:00,78.1,74.1,30.01,South,183,0.0,3.1,88,0.00,,SCT120,0.00,VWS V14.01,2013-07-09 12:38:00,
2013-07-09 07:43:00,78.1,74.1,30.01,NW,326,0.0,0.0,88,0.00,,-RA,0.00,VWS V14.01,2013-07-09 12:43:00,
2013-07-09 07:48:00,78.1,72.9,30.01,NW,309,0.0,0.0,84,0.00,,-RA,0.00,VWS V14.01,2013-07-09 12:48:00,
2013-07-09 07:53:00,78.1,72.9,30.01,WSW,250,0.0,0.0,84,0.00,,-RA,0.00,VWS V14.01,2013-07-09 12:53:00,
2013-07-09 07:58:00,78.3,73.0,30.01,SSE,166,0.0,3.1,84,0.00,,-RA,0.00,VWS V14.01,2013-07-09 12:58:00,
2013-07-09 08:03:00,78.4,73.2,29.98,WSW,238,4.0,4.0,84,0.00,,-RA,0.00,VWS V14.01,2013-07-09 13:03:00,
2013-07-09 08:08:00,78.4,73.2,29.98,South,176,0.0,0.0,84,0.00,,-RA,0.00,VWS V14.01,2013-07-09 13:08:00,
2013-07-09 08:13:00,78.4,73.2,29.98,SSW,206,0.0,2.7,84,0.00,,-RA,0.00,VWS V14.01,2013-07-09 13:13:00,
2013-07-09 08:19:00,78.6,73.4,30.01,SSE,168,0.0,4.0,84,0.00,,-RA,0.00,VWS V14.01,2013-07-09 13:19:00,
2013-07-09 08:24:00,78.8,72.3,30.01,SW,216,0.0,0.0,80,0.00,,CLR,0.00,VWS V14.01,2013-07-09 13:24:00,
2013-07-09 08:29:00,79.0,72.5,30.01,SSE,148,0.0,2.7,80,0.00,,CLR,0.00,VWS V14.01,2013-07-09 13:29:00,
2013-07-09 08:34:00,79.0,71.2,30.01,SSE,164,3.1,7.2,77,0.00,,CLR,0.00,VWS V14.01,2013-07-09 13:34:00,
2013-07-09 08:39:00,79.2,71.3,30.01,SSW,208,0.0,5.4,77,0.00,,CLR,0.00,VWS V14.01,2013-07-09 13:39:00,
2013-07-09 08:44:00,79.2,70.0,30.01,SSW,212,2.7,5.8,74,0.00,,CLR,0.00,VWS V14.01,2013-07-09 13:44:00,
2013-07-09 08:49:00,79.3,70.1,30.01,WSW,250,0.0,5.4,74,0.00,,SCT120,0.00,VWS V14.01,2013-07-09 13:49:00,
2013-07-09 08:54:00,79.5,68.9,30.01,SSW,212,0.0,4.9,70,0.00,,SCT120,0.00,VWS V14.01,2013-07-09 13:54:00,
2013-07-09 08:59:00,79.9,69.2,30.01,SSW,197,0.0,5.8,70,0.00,,SCT120,0.00,VWS V14.01,2013-07-09 13:59:00,
2013-07-09 09:04:00,79.9,69.2,30.01,SSW,210,4.5,4.5,70,0.00,,SCT120,0.00,VWS V14.01,2013-07-09 14:04:00,
2013-07-09 09:09:00,79.9,69.2,30.01,SW,231,4.0,5.4,70,0.00,,SCT120,0.00,VWS V14.01,2013-07-09 14:09:00,
2013-07-09 09:14:00,79.9,69.2,30.01,South,187,3.6,4.0,70,0.00,,SCT120,0.00,VWS V14.01,2013-07-09 14:14:00,
2013-07-09 09:19:00,79.7,69.1,30.01,SSE,162,3.6,5.4,70,0.00,,SCT120,0.00,VWS V14.01,2013-07-09 14:19:00,
2013-07-09 09:24:00,79.5,68.9,30.01,SW,223,2.2,4.0,70,0.00,,SCT120,0.00,VWS V14.01,2013-07-09 14:24:00,
2013-07-09 09:29:00,79.3,68.7,30.01,West,268,0.0,0.0,70,0.00,,SCT120,0.00,VWS V14.01,2013-07-09 14:29:00,
2013-07-09 09:34:00,79.0,68.4,30.01,NW,316,0.0,0.0,70,0.00,,SCT120,0.00,VWS V14.01,2013-07-09 14:34:00,
2013-07-09 09:39:00,78.6,69.4,30.01,SSW,202,0.0,4.5,74,0.00,,SCT120,0.00,VWS V14.01,2013-07-09 14:39:00,
2013-07-09 09:45:00,78.4,69.3,30.01,South,179,0.0,2.7,74,0.00,,SCT120,0.00,VWS V14.01,2013-07-09 14:45:00,
2013-07-09 09:50:00,78.3,69.1,30.01,SSW,198,0.0,4.0,74,0.00,,SCT120,0.00,VWS V14.01,2013-07-09 14:50:00,
2013-07-09 09:55:00,78.3,69.1,30.01,SSW,198,0.0,0.0,74,0.00,,SCT120,0.00,VWS V14.01,2013-07-09 14:55:00,
2013-07-09 10:00:00,78.1,68.9,30.01,West,266,0.0,0.0,74,0.00,,SCT120,0.00,VWS V14.01,2013-07-09 15:00:00,
2013-07-09 10:05:00,78.3,69.1,30.01,West,266,0.0,0.0,74,0.00,,CLR,0.00,VWS V14.01,2013-07-09 15:05:00,
2013-07-09 10:10:00,78.4,69.3,30.01,SW,230,0.0,0.0,74,0.00,,CLR,0.00,VWS V14.01,2013-07-09 15:10:00,
2013-07-09 10:15:00,78.8,69.6,30.01,SSE,167,0.0,0.0,74,0.00,,CLR,0.00,VWS V14.01,2013-07-09 15:15:00,
2013-07-09 10:20:00,79.0,69.8,30.01,ESE,117,0.0,0.0,74,0.00,,CLR,0.00,VWS V14.01,2013-07-09 15:20:00,
2013-07-09 10:25:00,79.9,72.0,30.01,South,171,3.6,5.8,77,0.00,,SCT070,0.00,VWS V14.01,2013-07-09 15:25:00,
2013-07-09 10:30:00,81.9,73.9,30.01,SW,235,5.4,5.8,77,0.00,,SCT070,0.00,VWS V14.01,2013-07-09 15:30:00,
2013-07-09 10:35:00,82.8,72.0,30.01,SW,216,0.0,2.2,70,0.00,,SCT070,0.00,VWS V14.01,2013-07-09 15:35:00,
2013-07-09 10:40:00,83.7,71.3,30.01,WSW,244,2.2,3.6,66,0.00,,SCT070,0.00,VWS V14.01,2013-07-09 15:40:00,
2013-07-09 10:46:00,84.4,70.4,30.01,South,175,0.0,0.0,63,0.00,,CLR,0.00,VWS V14.01,2013-07-09 15:46:00,
2013-07-09 10:51:00,84.9,67.5,30.01,South,190,0.0,0.0,56,0.00,,CLR,0.00,VWS V14.01,2013-07-09 15:51:00,
2013-07-09 10:56:00,85.1,67.7,30.01,South,180,0.0,0.0,56,0.00,,CLR,0.00,VWS V14.01,2013-07-09 15:56:00,
2013-07-09 11:01:00,85.3,67.8,30.01,WSW,246,0.0,0.0,56,0.00,,CLR,0.00,VWS V14.01,2013-07-09 16:01:00,
2013-07-09 11:06:00,85.3,67.8,30.01,SW,233,0.0,0.0,56,0.00,,CLR,0.00,VWS V14.01,2013-07-09 16:06:00,
2013-07-09 11:11:00,86.2,68.7,30.01,NNW,339,0.0,0.0,56,0.00,,CLR,0.00,VWS V14.01,2013-07-09 16:11:00,
2013-07-09 11:16:00,86.5,69.0,30.01,SW,223,2.2,2.2,56,0.00,,CLR,0.00,VWS V14.01,2013-07-09 16:16:00,
2013-07-09 11:21:00,86.5,69.0,30.01,South,181,0.0,0.0,56,0.00,,CLR,0.00,VWS V14.01,2013-07-09 16:21:00,
2013-07-09 11:26:00,86.5,69.0,30.01,NW,325,2.2,4.0,56,0.00,,CLR,0.00,VWS V14.01,2013-07-09 16:26:00,
2013-07-09 11:31:00,86.4,68.8,29.98,NNW,340,0.0,0.0,56,0.00,,CLR,0.00,VWS V14.01,2013-07-09 16:31:00,
2013-07-09 11:36:00,86.5,69.0,29.98,NNW,340,0.0,0.0,56,0.00,,CLR,0.00,VWS V14.01,2013-07-09 16:36:00,
2013-07-09 11:41:00,86.9,69.3,29.98,NNW,338,0.0,0.0,56,0.00,,CLR,0.00,VWS V14.01,2013-07-09 16:41:00,
2013-07-09 11:47:00,87.1,69.5,30.01,West,280,0.0,0.0,56,0.00,,CLR,0.00,VWS V14.01,2013-07-09 16:47:00,
2013-07-09 11:52:00,87.6,70.0,30.01,SW,236,0.0,0.0,56,0.00,,CLR,0.00,VWS V14.01,2013-07-09 16:52:00,
2013-07-09 11:57:00,88.3,68.8,30.01,South,184,0.0,0.0,52,0.00,,CLR,0.00,VWS V14.01,2013-07-09 16:57:00,
2013-07-09 12:02:00,89.1,69.4,30.01,SSE,160,4.0,5.4,52,0.00,,CLR,0.00,VWS V14.01,2013-07-09 17:02:00,
2013-07-09 12:07:00,89.1,69.4,30.01,SSE,168,0.0,4.0,52,0.00,,CLR,0.00,VWS V14.01,2013-07-09 17:07:00,
2013-07-09 12:12:00,89.2,69.6,30.01,West,278,0.0,0.0,52,0.00,,CLR,0.00,VWS V14.01,2013-07-09 17:12:00,
2013-07-09 12:17:00,89.6,69.9,30.01,North,0,0.0,4.9,52,0.00,,CLR,0.00,VWS V14.01,2013-07-09 17:17:00,
2013-07-09 12:22:00,90.0,70.3,30.01,ESE,107,0.0,0.0,52,0.00,,CLR,0.00,VWS V14.01,2013-07-09 17:22:00,
2013-07-09 12:27:00,90.1,70.4,30.01,SSW,192,0.0,2.7,52,0.00,,CLR,0.00,VWS V14.01,2013-07-09 17:27:00,
2013-07-09 12:32:00,90.3,70.6,30.01,SSE,159,0.0,3.6,52,0.00,,CLR,0.00,VWS V14.01,2013-07-09 17:32:00,
2013-07-09 12:38:00,90.7,70.9,30.01,WNW,291,0.0,0.0,52,0.00,,CLR,0.00,VWS V14.01,2013-07-09 17:38:00,
2013-07-09 12:43:00,90.5,70.8,30.01,South,177,0.0,0.0,52,0.00,,SCT070,0.00,VWS V14.01,2013-07-09 17:43:00,
2013-07-09 12:48:00,90.3,70.6,30.01,SSE,161,0.0,0.0,52,0.00,,SCT070,0.00,VWS V14.01,2013-07-09 17:48:00,
2013-07-09 12:53:00,90.5,70.8,30.01,ESE,117,3.6,4.9,52,0.00,,SCT070,0.00,VWS V14.01,2013-07-09 17:53:00,
2013-07-09 12:58:00,90.5,70.8,30.01,SW,236,0.0,4.9,52,0.00,,SCT070,0.00,VWS V14.01,2013-07-09 17:58:00,
2013-07-09 13:03:00,90.0,70.3,30.01,SW,226,0.0,0.0,52,0.00,,BKN070,0.00,VWS V14.01,2013-07-09 18:03:00,
2013-07-09 13:08:00,89.4,69.8,30.01,ENE,64,0.0,3.1,52,0.00,,BKN070,0.00,VWS V14.01,2013-07-09 18:08:00,
2013-07-09 13:13:00,88.9,69.3,30.01,South,185,0.0,0.0,52,0.00,,BKN070,0.00,VWS V14.01,2013-07-09 18:13:00,
2013-07-09 13:18:00,89.1,69.4,29.98,SSE,147,0.0,0.0,52,0.00,,BKN070,0.00,VWS V14.01,2013-07-09 18:18:00,
2013-07-09 13:23:00,88.7,69.1,29.98,SE,139,0.0,3.6,52,0.00,,SCT070,0.00,VWS V14.01,2013-07-09 18:23:00,
2013-07-09 13:29:00,88.2,68.6,29.98,South,188,3.6,3.6,52,0.00,,SCT070,0.00,VWS V14.01,2013-07-09 18:29:00,
2013-07-09 13:34:00,87.8,68.3,29.98,SW,224,0.0,4.0,52,0.00,,SCT070,0.00,VWS V14.01,2013-07-09 18:34:00,
2013-07-09 13:39:00,87.4,69.8,29.98,SSW,206,0.0,2.2,56,0.00,,SCT070,0.00,VWS V14.01,2013-07-09 18:39:00,
2013-07-09 13:44:00,87.4,69.8,29.98,SSW,202,0.0,0.0,56,0.00,,CLR,0.00,VWS V14.01,2013-07-09 18:44:00,
2013-07-09 13:49:00,87.8,68.3,29.98,SSE,155,0.0,4.0,52,0.00,,CLR,0.00,VWS V14.01,2013-07-09 18:49:00,
2013-07-09 13:54:00,88.5,68.9,29.98,South,178,4.0,5.4,52,0.00,,CLR,0.00,VWS V14.01,2013-07-09 18:54:00,
2013-07-09 13:59:00,88.7,69.1,29.98,South,181,0.0,2.7,52,0.00,,CLR,0.00,VWS V14.01,2013-07-09 18:59:00,
2013-07-09 14:04:00,88.5,68.9,29.98,SSE,156,3.1,4.5,52,0.00,,CLR,0.00,VWS V14.01,2013-07-09 19:04:00,
2013-07-09 14:09:00,88.2,68.6,29.98,SE,126,0.0,5.4,52,0.00,,CLR,0.00,VWS V14.01,2013-07-09 19:09:00,
2013-07-09 14:14:00,87.6,70.0,29.98,SSW,202,0.0,4.0,56,0.00,,CLR,0.00,VWS V14.01,2013-07-09 19:14:00,
2013-07-09 14:19:00,87.1,69.5,29.98,SSW,195,0.0,2.7,56,0.00,,CLR,0.00,VWS V14.01,2013-07-09 19:19:00,
2013-07-09 14:20:00,87.1,69.5,29.98,SSE,166,0.0,3.1,56,0.00,,CLR,0.00,VWS V14.01,2013-07-09 19:20:00,
2013-07-09 14:25:00,86.7,69.2,29.98,SSW,208,0.0,2.2,56,0.00,,CLR,0.00,VWS V14.01,2013-07-09 19:25:00,
2013-07-09 14:30:00,86.7,69.2,29.98,SE,138,2.7,3.6,56,0.00,,CLR,0.00,VWS V14.01,2013-07-09 19:30:00,
2013-07-09 14:36:00,86.7,69.2,29.98,SSE,165,5.4,5.4,56,0.00,,CLR,0.00,VWS V14.01,2013-07-09 19:36:00,
2013-07-09 14:41:00,86.5,69.0,29.98,SW,223,0.0,0.0,56,0.00,,CLR,0.00,VWS V14.01,2013-07-09 19:41:00,
2013-07-09 14:46:00,86.4,68.8,29.95,SSW,195,3.1,4.9,56,0.00,,CLR,0.00,VWS V14.01,2013-07-09 19:46:00,
2013-07-09 14:51:00,86.2,68.7,29.95,SW,220,0.0,0.0,56,0.00,,CLR,0.00,VWS V14.01,2013-07-09 19:51:00,
2013-07-09 14:56:00,86.2,68.7,29.95,SW,226,0.0,4.0,56,0.00,,CLR,0.00,VWS V14.01,2013-07-09 19:56:00,
2013-07-09 15:01:00,86.4,68.8,29.95,SSW,194,0.0,3.1,56,0.00,,CLR,0.00,VWS V14.01,2013-07-09 20:01:00,
2013-07-09 15:06:00,86.4,68.8,29.95,South,183,0.0,3.6,56,0.00,,CLR,0.00,VWS V14.01,2013-07-09 20:06:00,
2013-07-09 15:11:00,86.4,68.8,29.95,SSW,195,6.7,6.7,56,0.00,,CLR,0.00,VWS V14.01,2013-07-09 20:11:00,
2013-07-09 15:16:00,86.5,69.0,29.95,SSW,194,3.1,3.6,56,0.00,,CLR,0.00,VWS V14.01,2013-07-09 20:16:00,
2013-07-09 15:22:00,86.9,69.3,29.95,SSW,198,0.0,0.0,56,0.00,,CLR,0.00,VWS V14.01,2013-07-09 20:22:00,
2013-07-09 15:27:00,87.3,69.7,29.95,South,184,4.0,5.8,56,0.00,,CLR,0.00,VWS V14.01,2013-07-09 20:27:00,
2013-07-09 15:32:00,87.4,69.8,29.95,South,189,2.2,4.0,56,0.00,,CLR,0.00,VWS V14.01,2013-07-09 20:32:00,
2013-07-09 15:37:00,87.6,70.0,29.95,South,186,3.6,6.3,56,0.00,,CLR,0.00,VWS V14.01,2013-07-09 20:37:00,
2013-07-09 15:42:00,88.0,68.4,29.95,SSE,155,3.6,6.3,52,0.00,,CLR,0.00,VWS V14.01,2013-07-09 20:42:00,
2013-07-09 15:47:00,89.2,69.6,29.92,SE,127,0.0,0.0,52,0.00,,CLR,0.00,VWS V14.01,2013-07-09 20:47:00,
2013-07-09 15:52:00,90.0,70.3,29.92,SSE,148,4.9,4.9,52,0.00,,CLR,0.00,VWS V14.01,2013-07-09 20:52:00,
2013-07-09 15:57:00,89.6,69.9,29.92,West,271,3.6,5.8,52,0.00,,CLR,0.00,VWS V14.01,2013-07-09 20:57:00,
2013-07-09 16:02:00,88.5,68.9,29.95,SSE,147,3.1,3.1,52,0.00,,CLR,0.00,VWS V14.01,2013-07-09 21:02:00,
2013-07-09 16:07:00,88.0,68.4,29.95,South,178,2.7,5.8,52,0.00,,CLR,0.00,VWS V14.01,2013-07-09 21:07:00,
2013-07-09 16:12:00,87.4,69.8,29.95,NNE,23,0.0,4.0,56,0.00,,CLR,0.00,VWS V14.01,2013-07-09 21:12:00,
2013-07-09 16:17:00,87.1,69.5,29.95,South,185,0.0,3.6,56,0.00,,CLR,0.00,VWS V14.01,2013-07-09 21:17:00,
2013-07-09 16:22:00,86.4,68.8,29.95,South,180,0.0,3.6,56,0.00,,CLR,0.00,VWS V14.01,2013-07-09 21:22:00,
2013-07-09 16:27:00,86.0,68.5,29.95,SW,224,2.2,4.0,56,0.00,,CLR,0.00,VWS V14.01,2013-07-09 21:27:00,
2013-07-09 16:32:00,85.8,68.3,29.95,South,184,0.0,5.4,56,0.00,,CLR,0.00,VWS V14.01,2013-07-09 21:32:00,
2013-07-09 16:37:00,85.6,68.2,29.95,SE,140,4.0,4.0,56,0.00,,CLR,0.00,VWS V14.01,2013-07-09 21:37:00,
2013-07-09 16:43:00,85.5,68.0,29.95,SSE,165,0.0,5.8,56,0.00,,CLR,0.00,VWS V14.01,2013-07-09 21:43:00,
2013-07-09 16:48:00,85.1,67.7,29.92,SSW,201,2.7,4.0,56,0.00,,CLR,0.00,VWS V14.01,2013-07-09 21:48:00,
2013-07-09 16:53:00,84.9,67.5,29.92,South,172,3.1,4.0,56,0.00,,CLR,0.00,VWS V14.01,2013-07-09 21:53:00,
2013-07-09 16:58:00,84.9,67.5,29.92,SW,224,3.6,3.6,56,0.00,,CLR,0.00,VWS V14.01,2013-07-09 21:58:00,
2013-07-09 17:03:00,85.1,67.7,29.92,SW,215,4.9,6.3,56,0.00,,CLR,0.00,VWS V14.01,2013-07-09 22:03:00,
2013-07-09 17:08:00,84.9,67.5,29.92,South,186,2.7,4.9,56,0.00,,CLR,0.00,VWS V14.01,2013-07-09 22:08:00,
2013-07-09 17:13:00,84.9,67.5,29.92,SSW,202,2.7,4.9,56,0.00,,CLR,0.00,VWS V14.01,2013-07-09 22:13:00,
2013-07-09 17:18:00,85.1,67.7,29.92,SSW,213,2.7,4.5,56,0.00,,CLR,0.00,VWS V14.01,2013-07-09 22:18:00,
2013-07-09 17:23:00,86.0,68.5,29.92,SSE,153,0.0,3.1,56,0.00,,CLR,0.00,VWS V14.01,2013-07-09 22:23:00,
2013-07-09 17:28:00,87.4,69.8,29.92,SSW,211,3.1,4.9,56,0.00,,CLR,0.00,VWS V14.01,2013-07-09 22:28:00,
2013-07-09 17:33:00,88.5,68.9,29.92,SSW,202,2.7,5.8,52,0.00,,CLR,0.00,VWS V14.01,2013-07-09 22:33:00,
2013-07-09 17:38:00,88.5,68.9,29.92,South,178,4.9,5.4,52,0.00,,CLR,0.00,VWS V14.01,2013-07-09 22:38:00,
2013-07-09 17:44:00,88.7,69.1,29.92,SSW,206,4.0,7.2,52,0.00,,CLR,0.00,VWS V14.01,2013-07-09 22:44:00,
2013-07-09 17:49:00,89.1,69.4,29.92,SW,218,2.7,5.8,52,0.00,,CLR,0.00,VWS V14.01,2013-07-09 22:49:00,
2013-07-09 17:54:00,89.6,69.9,29.92,South,178,3.1,3.6,52,0.00,,CLR,0.00,VWS V14.01,2013-07-09 22:54:00,
2013-07-09 17:59:00,89.6,69.9,29.92,SSE,158,2.7,4.0,52,0.00,,CLR,0.00,VWS V14.01,2013-07-09 22:59:00,
2013-07-09 18:04:00,89.6,69.9,29.92,SW,225,2.7,4.0,52,0.00,,CLR,0.00,VWS V14.01,2013-07-09 23:04:00,
2013-07-09 18:09:00,89.8,70.1,29.92,SSW,206,3.1,4.0,52,0.00,,CLR,0.00,VWS V14.01,2013-07-09 23:09:00,
2013-07-09 18:14:00,90.0,70.3,29.92,NE,40,2.7,5.4,52,0.00,,CLR,0.00,VWS V14.01,2013-07-09 23:14:00,
2013-07-09 18:19:00,89.6,69.9,29.92,SSW,198,0.0,6.3,52,0.00,,CLR,0.00,VWS V14.01,2013-07-09 23:19:00,
2013-07-09 18:24:00,89.1,69.4,29.92,SE,128,5.4,5.4,52,0.00,,CLR,0.00,VWS V14.01,2013-07-09 23:24:00,
2013-07-09 18:29:00,89.1,69.4,29.92,SW,218,0.0,3.6,52,0.00,,CLR,0.00,VWS V14.01,2013-07-09 23:29:00,
2013-07-09 18:34:00,89.2,69.6,29.92,South,171,3.1,6.3,52,0.00,,CLR,0.00,VWS V14.01,2013-07-09 23:34:00,
2013-07-09 18:39:00,89.2,69.6,29.92,SSE,148,0.0,4.0,52,0.00,,CLR,0.00,VWS V14.01,2013-07-09 23:39:00,
2013-07-09 18:44:00,89.2,69.6,29.92,SSW,194,0.0,7.2,52,0.00,,SCT120,0.00,VWS V14.01,2013-07-09 23:44:00,
2013-07-09 18:49:00,89.2,69.6,29.89,WSW,237,3.1,6.3,52,0.00,,SCT120,0.00,VWS V14.01,2013-07-09 23:49:00,
2013-07-09 18:54:00,89.4,69.8,29.89,South,191,4.0,4.9,52,0.00,,SCT120,0.00,VWS V14.01,2013-07-09 23:54:00,
2013-07-09 18:59:00,89.2,69.6,29.89,South,180,0.0,4.9,52,0.00,,SCT120,0.00,VWS V14.01,2013-07-09 23:59:00,
2013-07-09 19:04:00,89.1,69.4,29.89,SSW,201,4.0,4.0,52,0.00,,SCT120,0.00,VWS V14.01,2013-07-10 00:04:00,
2013-07-09 19:06:00,89.1,69.4,29.89,SSW,204,0.0,4.0,52,0.00,,SCT120,0.00,VWS V14.01,2013-07-10 00:06:00,
2013-07-09 19:11:00,88.2,68.6,29.89,South,185,2.2,4.0,52,0.00,,SCT120,0.00,VWS V14.01,2013-07-10 00:11:00,
2013-07-09 19:16:00,87.6,70.0,29.89,SSE,152,5.4,5.4,56,0.00,,SCT120,0.00,VWS V14.01,2013-07-10 00:16:00,
2013-07-09 19:21:00,87.3,69.7,29.89,South,185,3.6,4.0,56,0.00,,SCT120,0.00,VWS V14.01,2013-07-10 00:21:00,
2013-07-09 19:26:00,87.1,69.5,29.89,SSE,166,2.7,3.6,56,0.00,,SCT120,0.00,VWS V14.01,2013-07-10 00:26:00,
2013-07-09 19:31:00,87.1,69.5,29.89,SSE,160,4.0,5.4,56,0.00,,SCT120,0.00,VWS V14.01,2013-07-10 00:31:00,
2013-07-09 19:36:00,87.1,69.5,29.89,South,189,0.0,0.0,56,0.00,,SCT120,0.00,VWS V14.01,2013-07-10 00:36:00,
2013-07-09 19:41:00,86.9,69.3,29.89,South,183,3.1,3.1,56,0.00,,SCT120,0.00,VWS V14.01,2013-07-10 00:41:00,
2013-07-09 19:46:00,86.7,69.2,29.89,SSW,197,0.0,2.7,56,0.00,,BKN120,0.00,VWS V14.01,2013-07-10 00:46:00,
2013-07-09 19:51:00,86.4,68.8,29.89,SSW,201,0.0,5.8,56,0.00,,BKN120,0.00,VWS V14.01,2013-07-10 00:51:00,
2013-07-09 19:56:00,86.2,68.7,29.89,South,185,0.0,0.0,56,0.00,,BKN120,0.00,VWS V14.01,2013-07-10 00:56:00,
2013-07-09 20:01:00,86.0,68.5,29.89,South,191,3.1,3.1,56,0.00,,BKN120,0.00,VWS V14.01,2013-07-10 01:01:00,
2013-07-09 20:06:00,85.8,68.3,29.89,SSW,199,2.7,4.9,56,0.00,,SCT120,0.00,VWS V14.01,2013-07-10 01:06:00,
2013-07-09 20:12:00,85.6,68.2,29.89,SSW,210,0.0,3.1,56,0.00,,SCT120,0.00,VWS V14.01,2013-07-10 01:12:00,
2013-07-09 20:17:00,85.5,68.0,29.89,SSE,166,0.0,4.9,56,0.00,,SCT120,0.00,VWS V14.01,2013-07-10 01:17:00,
2013-07-09 20:22:00,85.3,67.8,29.89,SSW,211,0.0,3.6,56,0.00,,CLR,0.00,VWS V14.01,2013-07-10 01:22:00,
2013-07-09 20:27:00,85.1,67.7,29.89,SW,225,0.0,3.6,56,0.00,,CLR,0.00,VWS V14.01,2013-07-10 01:27:00,
2013-07-09 20:32:00,84.9,67.5,29.89,SW,224,0.0,4.0,56,0.00,,CLR,0.00,VWS V14.01,2013-07-10 01:32:00,
2013-07-09 20:37:00,84.9,67.5,29.89,SSW,201,2.7,3.6,56,0.00,,CLR,0.00,VWS V14.01,2013-07-10 01:37:00,
2013-07-09 20:42:00,84.7,67.3,29.89,SSW,203,0.0,0.0,56,0.00,,CLR,0.00,VWS V14.01,2013-07-10 01:42:00,
2013-07-09 20:47:00,84.6,67.2,29.89,SSE,151,0.0,0.0,56,0.00,,CLR,0.00,VWS V14.01,2013-07-10 01:47:00,
2013-07-09 20:52:00,84.4,67.0,29.89,SW,214,0.0,4.0,56,0.00,,CLR,0.00,VWS V14.01,2013-07-10 01:52:00,
2013-07-09 20:57:00,84.2,66.8,29.89,SSW,208,0.0,2.2,56,0.00,,CLR,0.00,VWS V14.01,2013-07-10 01:57:00,
2013-07-09 21:02:00,84.2,66.8,29.89,South,181,0.0,4.0,56,0.00,,CLR,0.00,VWS V14.01,2013-07-10 02:02:00,
2013-07-09 21:08:00,84.2,66.8,29.89,SSW,198,2.7,6.3,56,0.00,,CLR,0.00,VWS V14.01,2013-07-10 02:08:00,
2013-07-09 21:13:00,84.0,66.7,29.89,South,186,0.0,6.3,56,0.00,,CLR,0.00,VWS V14.01,2013-07-10 02:13:00,
2013-07-09 21:18:00,84.0,66.7,29.89,SSW,196,0.0,4.9,56,0.00,,CLR,0.00,VWS V14.01,2013-07-10 02:18:00,
2013-07-09 21:23:00,83.8,66.5,29.89,SW,222,0.0,4.9,56,0.00,,CLR,0.00,VWS V14.01,2013-07-10 02:23:00,
2013-07-09 21:28:00,83.8,66.5,29.89,SSW,203,0.0,0.0,56,0.00,,CLR,0.00,VWS V14.01,2013-07-10 02:28:00,
2013-07-09 21:33:00,83.7,66.3,29.89,SW,218,2.2,5.4,56,0.00,,CLR,0.00,VWS V14.01,2013-07-10 02:33:00,
2013-07-09 21:38:00,83.7,66.3,29.89,SW,217,3.1,3.6,56,0.00,,CLR,0.00,VWS V14.01,2013-07-10 02:38:00,
2013-07-09 21:43:00,83.5,66.2,29.89,SSW,195,2.7,2.7,56,0.00,,CLR,0.00,VWS V14.01,2013-07-10 02:43:00,
2013-07-09 21:48:00,83.3,66.0,29.89,South,178,0.0,3.6,56,0.00,,CLR,0.00,VWS V14.01,2013-07-10 02:48:00,
2013-07-09 21:53:00,83.3,66.0,29.89,South,184,0.0,2.2,56,0.00,,CLR,0.00,VWS V14.01,2013-07-10 02:53:00,
2013-07-09 21:58:00,83.1,65.8,29.89,South,173,3.1,4.0,56,0.00,,CLR,0.00,VWS V14.01,2013-07-10 02:58:00,
2013-07-09 22:04:00,83.1,65.8,29.92,SSW,209,0.0,0.0,56,0.00,,CLR,0.00,VWS V14.01,2013-07-10 03:04:00,
2013-07-09 22:09:00,82.9,65.7,29.92,SSW,198,4.0,5.8,56,0.00,,CLR,0.00,VWS V14.01,2013-07-10 03:09:00,
2013-07-09 22:14:00,82.9,65.7,29.92,South,176,0.0,3.1,56,0.00,,CLR,0.00,VWS V14.01,2013-07-10 03:14:00,
2013-07-09 22:19:00,82.8,65.5,29.92,South,172,3.6,8.1,56,0.00,,CLR,0.00,VWS V14.01,2013-07-10 03:19:00,
2013-07-09 22:24:00,82.8,65.5,29.92,SSW,211,0.0,0.0,56,0.00,,CLR,0.00,VWS V14.01,2013-07-10 03:24:00,
2013-07-09 22:29:00,82.8,65.5,29.92,SSE,168,0.0,5.4,56,0.00,,CLR,0.00,VWS V14.01,2013-07-10 03:29:00,
2013-07-09 22:34:00,82.6,65.3,29.92,SSE,155,0.0,2.7,56,0.00,,CLR,0.00,VWS V14.01,2013-07-10 03:34:00,
2013-07-09 22:39:00,82.6,65.3,29.92,South,191,4.9,4.9,56,0.00,,CLR,0.00,VWS V14.01,2013-07-10 03:39:00,
2013-07-09 22:44:00,82.4,65.1,29.92,SE,136,0.0,3.6,56,0.00,,CLR,0.00,VWS V14.01,2013-07-10 03:44:00,
2013-07-09 22:49:00,82.4,65.1,29.92,South,171,0.0,3.6,56,0.00,,CLR,0.00,VWS V14.01,2013-07-10 03:49:00,
2013-07-09 22:55:00,82.2,66.7,29.92,SSW,206,0.0,4.9,60,0.00,,CLR,0.00,VWS V14.01,2013-07-10 03:55:00,
2013-07-09 23:00:00,82.2,66.7,29.92,SSW,200,0.0,3.1,60,0.00,,CLR,0.00,VWS V14.01,2013-07-10 04:00:00,
2013-07-09 23:01:00,82.2,66.7,29.92,SSW,200,0.0,0.0,60,0.00,,CLR,0.00,VWS V14.01,2013-07-10 04:01:00,
2013-07-09 23:02:00,82.2,66.7,29.92,SSW,202,0.0,0.0,60,0.00,,CLR,0.00,VWS V14.01,2013-07-10 04:02:00,
2013-07-09 23:03:00,82.2,66.7,29.92,South,187,0.0,0.0,60,0.00,,CLR,0.00,VWS V14.01,2013-07-10 04:03:00,
2013-07-09 23:08:00,82.0,66.6,29.92,SSW,204,2.7,6.3,60,0.00,,CLR,0.00,VWS V14.01,2013-07-10 04:08:00,
2013-07-09 23:13:00,82.0,66.6,29.92,SW,216,4.5,4.5,60,0.00,,CLR,0.00,VWS V14.01,2013-07-10 04:13:00,
2013-07-09 23:18:00,82.0,66.6,29.92,South,189,2.2,3.1,60,0.00,,CLR,0.00,VWS V14.01,2013-07-10 04:18:00,
2013-07-09 23:23:00,82.0,66.6,29.92,SSE,164,2.7,3.6,60,0.00,,CLR,0.00,VWS V14.01,2013-07-10 04:23:00,
2013-07-09 23:28:00,82.0,66.6,29.92,SSW,212,0.0,6.3,60,0.00,,CLR,0.00,VWS V14.01,2013-07-10 04:28:00,
2013-07-09 23:33:00,82.0,66.6,29.92,SSW,209,0.0,4.9,60,0.00,,CLR,0.00,VWS V14.01,2013-07-10 04:33:00,
2013-07-09 23:38:00,82.0,66.6,29.92,SW,215,0.0,4.0,60,0.00,,CLR,0.00,VWS V14.01,2013-07-10 04:38:00,
2013-07-09 23:43:00,82.0,66.6,29.92,SSW,197,0.0,6.3,60,0.00,,CLR,0.00,VWS V14.01,2013-07-10 04:43:00,
2013-07-09 23:48:00,82.0,66.6,29.92,South,183,0.0,4.0,60,0.00,,CLR,0.00,VWS V14.01,2013-07-10 04:48:00,
2013-07-09 23:53:00,81.9,66.4,29.92,South,173,0.0,5.4,60,0.00,,CLR,0.00,VWS V14.01,2013-07-10 04:53:00,
2013-07-09 23:58:00,81.7,66.2,29.92,South,180,4.0,4.9,60,0.00,,CLR,0.00,VWS V14.01,2013-07-10 04:58:00,